sensor_id;sensor_type;location;lat;lon;timestamp;P1;durP1;ratioP1;P2;durP2;ratioP2
4833;SDS011;12895;51.064;7.028;2024-03-22T00:00:35;29.30;;;20.83;;
4833;SDS011;12895;51.064;7.028;2024-03-22T00:03:22;34.07;;;24.07;;
4833;SDS011;12895;51.064;7.028;2024-03-22T00:06:08;33.33;;;23.03;;
4833;SDS011;12895;51.064;7.028;2024-03-22T00:08:56;30.70;;;23.07;;
4833;SDS011;12895;51.064;7.028;2024-03-22T00:11:43;29.23;;;21.20;;
4833;SDS011;12895;51.064;7.028;2024-03-22T00:14:31;26.73;;;20.90;;
4833;SDS011;12895;51.064;7.028;2024-03-22T00:17:17;32.67;;;23.03;;
4833;SDS011;12895;51.064;7.028;2024-03-22T00:20:04;29.77;;;23.10;;
4833;SDS011;12895;51.064;7.028;2024-03-22T00:22:52;29.47;;;23.03;;
4833;SDS011;12895;51.064;7.028;2024-03-22T00:25:39;31.40;;;22.07;;
4833;SDS011;12895;51.064;7.028;2024-03-22T00:28:26;29.30;;;21.23;;
4833;SDS011;12895;51.064;7.028;2024-03-22T00:31:12;26.60;;;20.33;;
4833;SDS011;12895;51.064;7.028;2024-03-22T00:33:59;31.80;;;21.67;;
4833;SDS011;12895;51.064;7.028;2024-03-22T00:36:46;27.27;;;20.40;;
4833;SDS011;12895;51.064;7.028;2024-03-22T00:39:33;25.40;;;20.33;;
4833;SDS011;12895;51.064;7.028;2024-03-22T00:42:20;27.10;;;20.93;;
4833;SDS011;12895;51.064;7.028;2024-03-22T00:45:08;25.77;;;19.83;;
4833;SDS011;12895;51.064;7.028;2024-03-22T00:47:54;26.63;;;20.30;;
4833;SDS011;12895;51.064;7.028;2024-03-22T00:50:41;23.50;;;20.07;;
4833;SDS011;12895;51.064;7.028;2024-03-22T00:53:27;30.23;;;21.50;;
4833;SDS011;12895;51.064;7.028;2024-03-22T00:56:14;27.17;;;20.60;;
4833;SDS011;12895;51.064;7.028;2024-03-22T00:59:01;25.73;;;20.33;;
4833;SDS011;12895;51.064;7.028;2024-03-22T01:01:48;27.60;;;20.57;;
4833;SDS011;12895;51.064;7.028;2024-03-22T01:04:34;28.53;;;20.60;;
4833;SDS011;12895;51.064;7.028;2024-03-22T01:07:21;26.10;;;19.40;;
4833;SDS011;12895;51.064;7.028;2024-03-22T01:10:08;24.40;;;19.73;;
4833;SDS011;12895;51.064;7.028;2024-03-22T01:12:55;29.90;;;21.10;;
4833;SDS011;12895;51.064;7.028;2024-03-22T01:15:42;22.17;;;18.00;;
4833;SDS011;12895;51.064;7.028;2024-03-22T01:18:29;23.67;;;20.00;;
4833;SDS011;12895;51.064;7.028;2024-03-22T01:21:15;24.17;;;18.37;;
4833;SDS011;12895;51.064;7.028;2024-03-22T01:24:02;23.63;;;19.00;;
4833;SDS011;12895;51.064;7.028;2024-03-22T01:26:48;22.90;;;19.43;;
4833;SDS011;12895;51.064;7.028;2024-03-22T01:29:35;24.30;;;19.40;;
4833;SDS011;12895;51.064;7.028;2024-03-22T01:32:23;23.20;;;18.03;;
4833;SDS011;12895;51.064;7.028;2024-03-22T01:35:10;26.40;;;19.57;;
4833;SDS011;12895;51.064;7.028;2024-03-22T01:37:56;21.50;;;18.63;;
4833;SDS011;12895;51.064;7.028;2024-03-22T01:40:43;26.00;;;18.90;;
4833;SDS011;12895;51.064;7.028;2024-03-22T01:43:29;24.20;;;19.90;;
4833;SDS011;12895;51.064;7.028;2024-03-22T01:46:16;25.37;;;18.97;;
4833;SDS011;12895;51.064;7.028;2024-03-22T01:49:03;22.47;;;18.20;;
4833;SDS011;12895;51.064;7.028;2024-03-22T01:51:51;20.30;;;16.90;;
4833;SDS011;12895;51.064;7.028;2024-03-22T01:54:37;21.47;;;16.50;;
4833;SDS011;12895;51.064;7.028;2024-03-22T01:57:24;21.60;;;17.87;;
4833;SDS011;12895;51.064;7.028;2024-03-22T02:00:11;20.13;;;16.27;;
4833;SDS011;12895;51.064;7.028;2024-03-22T02:03:01;20.43;;;17.10;;
4833;SDS011;12895;51.064;7.028;2024-03-22T02:05:49;22.13;;;17.50;;
4833;SDS011;12895;51.064;7.028;2024-03-22T02:08:36;20.57;;;16.93;;
4833;SDS011;12895;51.064;7.028;2024-03-22T02:11:22;20.50;;;16.90;;
4833;SDS011;12895;51.064;7.028;2024-03-22T02:14:09;22.97;;;17.10;;
4833;SDS011;12895;51.064;7.028;2024-03-22T02:16:55;19.63;;;15.60;;
4833;SDS011;12895;51.064;7.028;2024-03-22T02:19:42;19.77;;;15.70;;
4833;SDS011;12895;51.064;7.028;2024-03-22T02:22:30;20.47;;;16.03;;
4833;SDS011;12895;51.064;7.028;2024-03-22T02:25:18;20.37;;;16.97;;
4833;SDS011;12895;51.064;7.028;2024-03-22T02:28:04;19.30;;;15.80;;
4833;SDS011;12895;51.064;7.028;2024-03-22T02:30:52;19.20;;;15.50;;
4833;SDS011;12895;51.064;7.028;2024-03-22T02:33:38;21.50;;;16.50;;
4833;SDS011;12895;51.064;7.028;2024-03-22T02:36:26;19.23;;;15.30;;
4833;SDS011;12895;51.064;7.028;2024-03-22T02:39:12;19.97;;;16.30;;
4833;SDS011;12895;51.064;7.028;2024-03-22T02:42:00;20.73;;;16.37;;
4833;SDS011;12895;51.064;7.028;2024-03-22T02:44:46;17.90;;;14.53;;
4833;SDS011;12895;51.064;7.028;2024-03-22T02:47:33;18.23;;;15.17;;
4833;SDS011;12895;51.064;7.028;2024-03-22T02:50:19;19.60;;;15.17;;
4833;SDS011;12895;51.064;7.028;2024-03-22T02:53:06;16.63;;;14.17;;
4833;SDS011;12895;51.064;7.028;2024-03-22T02:55:53;17.80;;;15.47;;
4833;SDS011;12895;51.064;7.028;2024-03-22T02:58:41;20.80;;;15.17;;
4833;SDS011;12895;51.064;7.028;2024-03-22T03:01:28;19.03;;;14.70;;
4833;SDS011;12895;51.064;7.028;2024-03-22T03:04:14;17.73;;;14.97;;
4833;SDS011;12895;51.064;7.028;2024-03-22T03:07:01;17.50;;;15.10;;
4833;SDS011;12895;51.064;7.028;2024-03-22T03:09:47;18.67;;;14.13;;
4833;SDS011;12895;51.064;7.028;2024-03-22T03:12:34;20.40;;;14.37;;
4833;SDS011;12895;51.064;7.028;2024-03-22T03:15:21;20.20;;;15.53;;
4833;SDS011;12895;51.064;7.028;2024-03-22T03:18:08;18.60;;;15.37;;
4833;SDS011;12895;51.064;7.028;2024-03-22T03:20:54;17.50;;;13.60;;
4833;SDS011;12895;51.064;7.028;2024-03-22T03:23:41;17.90;;;14.57;;
4833;SDS011;12895;51.064;7.028;2024-03-22T03:26:27;17.30;;;14.30;;
4833;SDS011;12895;51.064;7.028;2024-03-22T03:29:14;17.20;;;14.70;;
4833;SDS011;12895;51.064;7.028;2024-03-22T03:32:02;18.40;;;15.30;;
4833;SDS011;12895;51.064;7.028;2024-03-22T03:34:49;17.73;;;14.30;;
4833;SDS011;12895;51.064;7.028;2024-03-22T03:37:35;19.07;;;13.97;;
4833;SDS011;12895;51.064;7.028;2024-03-22T03:40:22;16.80;;;14.70;;
4833;SDS011;12895;51.064;7.028;2024-03-22T03:43:10;17.23;;;14.13;;
4833;SDS011;12895;51.064;7.028;2024-03-22T03:45:57;19.00;;;15.13;;
4833;SDS011;12895;51.064;7.028;2024-03-22T03:48:44;17.07;;;13.77;;
4833;SDS011;12895;51.064;7.028;2024-03-22T03:51:31;17.40;;;14.00;;
4833;SDS011;12895;51.064;7.028;2024-03-22T03:54:17;17.40;;;13.37;;
4833;SDS011;12895;51.064;7.028;2024-03-22T03:57:04;17.53;;;13.73;;
4833;SDS011;12895;51.064;7.028;2024-03-22T03:59:51;16.33;;;13.43;;
4833;SDS011;12895;51.064;7.028;2024-03-22T04:02:37;17.37;;;13.50;;
4833;SDS011;12895;51.064;7.028;2024-03-22T04:05:26;20.73;;;14.00;;
4833;SDS011;12895;51.064;7.028;2024-03-22T04:08:12;15.23;;;13.53;;
4833;SDS011;12895;51.064;7.028;2024-03-22T04:10:59;16.80;;;14.00;;
4833;SDS011;12895;51.064;7.028;2024-03-22T04:13:45;14.77;;;13.23;;
4833;SDS011;12895;51.064;7.028;2024-03-22T04:16:33;18.27;;;13.90;;
4833;SDS011;12895;51.064;7.028;2024-03-22T04:19:19;15.23;;;13.57;;
4833;SDS011;12895;51.064;7.028;2024-03-22T04:22:07;18.00;;;13.87;;
4833;SDS011;12895;51.064;7.028;2024-03-22T04:24:53;17.17;;;13.57;;
4833;SDS011;12895;51.064;7.028;2024-03-22T04:27:40;16.40;;;14.40;;
4833;SDS011;12895;51.064;7.028;2024-03-22T04:30:26;16.40;;;13.23;;
4833;SDS011;12895;51.064;7.028;2024-03-22T04:33:13;17.30;;;13.20;;
4833;SDS011;12895;51.064;7.028;2024-03-22T04:36:00;15.73;;;14.03;;
4833;SDS011;12895;51.064;7.028;2024-03-22T04:38:49;15.53;;;13.80;;
4833;SDS011;12895;51.064;7.028;2024-03-22T04:41:36;17.77;;;13.27;;
4833;SDS011;12895;51.064;7.028;2024-03-22T04:44:23;16.43;;;13.20;;
4833;SDS011;12895;51.064;7.028;2024-03-22T04:47:10;15.90;;;13.83;;
4833;SDS011;12895;51.064;7.028;2024-03-22T04:49:56;18.40;;;13.83;;
4833;SDS011;12895;51.064;7.028;2024-03-22T04:52:43;15.50;;;13.90;;
4833;SDS011;12895;51.064;7.028;2024-03-22T04:55:31;17.40;;;12.30;;
4833;SDS011;12895;51.064;7.028;2024-03-22T04:58:18;17.73;;;15.50;;
4833;SDS011;12895;51.064;7.028;2024-03-22T05:01:05;16.27;;;13.73;;
4833;SDS011;12895;51.064;7.028;2024-03-22T05:03:53;15.47;;;12.80;;
4833;SDS011;12895;51.064;7.028;2024-03-22T05:06:40;17.90;;;14.10;;
4833;SDS011;12895;51.064;7.028;2024-03-22T05:09:27;15.60;;;12.50;;
4833;SDS011;12895;51.064;7.028;2024-03-22T05:12:14;15.83;;;14.00;;
4833;SDS011;12895;51.064;7.028;2024-03-22T05:15:01;16.80;;;13.27;;
4833;SDS011;12895;51.064;7.028;2024-03-22T05:17:47;15.53;;;13.20;;
4833;SDS011;12895;51.064;7.028;2024-03-22T05:20:34;16.00;;;12.90;;
4833;SDS011;12895;51.064;7.028;2024-03-22T05:23:20;17.33;;;13.60;;
4833;SDS011;12895;51.064;7.028;2024-03-22T05:26:07;18.20;;;13.43;;
4833;SDS011;12895;51.064;7.028;2024-03-22T05:28:55;13.67;;;12.17;;
4833;SDS011;12895;51.064;7.028;2024-03-22T05:31:45;14.40;;;12.80;;
4833;SDS011;12895;51.064;7.028;2024-03-22T05:34:32;16.77;;;12.97;;
4833;SDS011;12895;51.064;7.028;2024-03-22T05:37:21;19.47;;;13.03;;
4833;SDS011;12895;51.064;7.028;2024-03-22T05:40:07;17.07;;;12.70;;
4833;SDS011;12895;51.064;7.028;2024-03-22T05:42:55;17.20;;;12.97;;
4833;SDS011;12895;51.064;7.028;2024-03-22T05:45:43;15.13;;;13.27;;
4833;SDS011;12895;51.064;7.028;2024-03-22T05:48:30;15.87;;;13.30;;
4833;SDS011;12895;51.064;7.028;2024-03-22T05:51:16;15.40;;;13.10;;
4833;SDS011;12895;51.064;7.028;2024-03-22T05:54:03;15.90;;;13.30;;
4833;SDS011;12895;51.064;7.028;2024-03-22T05:56:49;17.70;;;12.97;;
4833;SDS011;12895;51.064;7.028;2024-03-22T05:59:39;13.83;;;12.30;;
4833;SDS011;12895;51.064;7.028;2024-03-22T06:02:27;16.33;;;13.13;;
4833;SDS011;12895;51.064;7.028;2024-03-22T06:05:14;14.77;;;12.90;;
4833;SDS011;12895;51.064;7.028;2024-03-22T06:08:00;15.57;;;13.50;;
4833;SDS011;12895;51.064;7.028;2024-03-22T06:10:50;14.10;;;12.60;;
4833;SDS011;12895;51.064;7.028;2024-03-22T06:13:36;14.37;;;12.73;;
4833;SDS011;12895;51.064;7.028;2024-03-22T06:16:23;16.10;;;13.70;;
4833;SDS011;12895;51.064;7.028;2024-03-22T06:19:11;16.27;;;13.87;;
4833;SDS011;12895;51.064;7.028;2024-03-22T06:21:57;16.90;;;13.40;;
4833;SDS011;12895;51.064;7.028;2024-03-22T06:24:47;15.40;;;13.80;;
4833;SDS011;12895;51.064;7.028;2024-03-22T06:27:40;16.07;;;14.47;;
4833;SDS011;12895;51.064;7.028;2024-03-22T06:30:26;16.20;;;13.63;;
4833;SDS011;12895;51.064;7.028;2024-03-22T06:33:13;16.90;;;15.10;;
4833;SDS011;12895;51.064;7.028;2024-03-22T06:36:04;16.07;;;13.07;;
4833;SDS011;12895;51.064;7.028;2024-03-22T06:38:51;18.83;;;14.83;;
4833;SDS011;12895;51.064;7.028;2024-03-22T06:41:37;17.10;;;14.00;;
4833;SDS011;12895;51.064;7.028;2024-03-22T06:44:26;16.50;;;14.10;;
4833;SDS011;12895;51.064;7.028;2024-03-22T06:47:12;17.43;;;14.50;;
4833;SDS011;12895;51.064;7.028;2024-03-22T06:49:59;15.73;;;13.57;;
4833;SDS011;12895;51.064;7.028;2024-03-22T06:52:46;15.57;;;13.97;;
4833;SDS011;12895;51.064;7.028;2024-03-22T06:55:33;16.93;;;13.07;;
4833;SDS011;12895;51.064;7.028;2024-03-22T06:58:19;16.83;;;13.63;;
4833;SDS011;12895;51.064;7.028;2024-03-22T07:01:06;19.00;;;13.37;;
4833;SDS011;12895;51.064;7.028;2024-03-22T07:03:52;14.90;;;13.30;;
4833;SDS011;12895;51.064;7.028;2024-03-22T07:06:39;17.37;;;13.70;;
4833;SDS011;12895;51.064;7.028;2024-03-22T07:09:29;16.07;;;13.33;;
4833;SDS011;12895;51.064;7.028;2024-03-22T07:12:16;15.37;;;13.60;;
4833;SDS011;12895;51.064;7.028;2024-03-22T07:15:05;16.03;;;13.03;;
4833;SDS011;12895;51.064;7.028;2024-03-22T07:18:05;15.47;;;12.67;;
4833;SDS011;12895;51.064;7.028;2024-03-22T07:20:51;17.07;;;13.73;;
4833;SDS011;12895;51.064;7.028;2024-03-22T07:23:38;16.63;;;12.83;;
4833;SDS011;12895;51.064;7.028;2024-03-22T07:26:27;14.73;;;13.30;;
4833;SDS011;12895;51.064;7.028;2024-03-22T07:29:13;18.00;;;14.37;;
4833;SDS011;12895;51.064;7.028;2024-03-22T07:32:00;15.20;;;12.40;;
4833;SDS011;12895;51.064;7.028;2024-03-22T07:34:46;15.27;;;13.60;;
4833;SDS011;12895;51.064;7.028;2024-03-22T07:37:33;13.40;;;12.10;;
4833;SDS011;12895;51.064;7.028;2024-03-22T07:40:19;14.80;;;13.30;;
4833;SDS011;12895;51.064;7.028;2024-03-22T07:43:08;17.30;;;14.63;;
4833;SDS011;12895;51.064;7.028;2024-03-22T07:45:54;17.10;;;13.83;;
4833;SDS011;12895;51.064;7.028;2024-03-22T07:48:41;19.43;;;16.27;;
4833;SDS011;12895;51.064;7.028;2024-03-22T07:51:27;19.57;;;17.63;;
4833;SDS011;12895;51.064;7.028;2024-03-22T07:54:13;19.20;;;17.40;;
4833;SDS011;12895;51.064;7.028;2024-03-22T07:56:59;19.03;;;16.57;;
4833;SDS011;12895;51.064;7.028;2024-03-22T07:59:48;20.10;;;16.27;;
4833;SDS011;12895;51.064;7.028;2024-03-22T08:02:34;19.30;;;17.00;;
4833;SDS011;12895;51.064;7.028;2024-03-22T08:05:21;17.30;;;15.50;;
4833;SDS011;12895;51.064;7.028;2024-03-22T08:08:08;19.20;;;17.20;;
4833;SDS011;12895;51.064;7.028;2024-03-22T08:11:02;19.77;;;17.57;;
4833;SDS011;12895;51.064;7.028;2024-03-22T08:13:54;22.43;;;18.13;;
4833;SDS011;12895;51.064;7.028;2024-03-22T08:16:55;21.40;;;17.70;;
4833;SDS011;12895;51.064;7.028;2024-03-22T08:19:42;20.30;;;18.10;;
4833;SDS011;12895;51.064;7.028;2024-03-22T08:22:33;21.17;;;18.87;;
4833;SDS011;12895;51.064;7.028;2024-03-22T08:25:19;20.87;;;18.57;;
4833;SDS011;12895;51.064;7.028;2024-03-22T08:28:09;20.00;;;17.90;;
4833;SDS011;12895;51.064;7.028;2024-03-22T08:30:58;23.63;;;18.40;;
4833;SDS011;12895;51.064;7.028;2024-03-22T08:33:47;21.87;;;17.87;;
4833;SDS011;12895;51.064;7.028;2024-03-22T08:36:36;21.50;;;16.93;;
4833;SDS011;12895;51.064;7.028;2024-03-22T08:39:25;21.90;;;17.83;;
4833;SDS011;12895;51.064;7.028;2024-03-22T08:42:12;16.60;;;15.00;;
4833;SDS011;12895;51.064;7.028;2024-03-22T08:45:00;18.07;;;14.53;;
4833;SDS011;12895;51.064;7.028;2024-03-22T08:47:52;17.70;;;13.73;;
4833;SDS011;12895;51.064;7.028;2024-03-22T08:50:48;14.97;;;12.40;;
4833;SDS011;12895;51.064;7.028;2024-03-22T08:53:36;17.63;;;12.90;;
4833;SDS011;12895;51.064;7.028;2024-03-22T08:56:22;15.53;;;11.70;;
4833;SDS011;12895;51.064;7.028;2024-03-22T08:59:09;18.43;;;12.80;;
4833;SDS011;12895;51.064;7.028;2024-03-22T09:01:55;13.70;;;11.43;;
4833;SDS011;12895;51.064;7.028;2024-03-22T09:04:42;12.70;;;11.27;;
4833;SDS011;12895;51.064;7.028;2024-03-22T09:07:30;13.13;;;11.73;;
4833;SDS011;12895;51.064;7.028;2024-03-22T09:10:17;15.77;;;10.77;;
4833;SDS011;12895;51.064;7.028;2024-03-22T09:13:03;14.53;;;11.43;;
4833;SDS011;12895;51.064;7.028;2024-03-22T09:15:55;12.00;;;10.90;;
4833;SDS011;12895;51.064;7.028;2024-03-22T09:18:42;12.20;;;11.00;;
4833;SDS011;12895;51.064;7.028;2024-03-22T09:21:30;13.80;;;11.37;;
4833;SDS011;12895;51.064;7.028;2024-03-22T09:24:19;12.30;;;11.10;;
4833;SDS011;12895;51.064;7.028;2024-03-22T09:27:06;13.17;;;10.77;;
4833;SDS011;12895;51.064;7.028;2024-03-22T09:29:54;13.50;;;10.50;;
4833;SDS011;12895;51.064;7.028;2024-03-22T09:32:41;11.87;;;10.70;;
4833;SDS011;12895;51.064;7.028;2024-03-22T09:35:29;14.30;;;10.57;;
4833;SDS011;12895;51.064;7.028;2024-03-22T09:38:15;12.47;;;11.23;;
4833;SDS011;12895;51.064;7.028;2024-03-22T09:41:03;12.20;;;10.47;;
4833;SDS011;12895;51.064;7.028;2024-03-22T09:43:50;13.80;;;10.57;;
4833;SDS011;12895;51.064;7.028;2024-03-22T09:46:38;15.60;;;10.83;;
4833;SDS011;12895;51.064;7.028;2024-03-22T09:49:26;14.63;;;9.70;;
4833;SDS011;12895;51.064;7.028;2024-03-22T09:52:14;12.37;;;11.00;;
4833;SDS011;12895;51.064;7.028;2024-03-22T09:55:03;11.67;;;10.50;;
4833;SDS011;12895;51.064;7.028;2024-03-22T09:57:58;12.43;;;10.67;;
4833;SDS011;12895;51.064;7.028;2024-03-22T10:00:45;10.67;;;9.63;;
4833;SDS011;12895;51.064;7.028;2024-03-22T10:03:34;10.97;;;9.80;;
4833;SDS011;12895;51.064;7.028;2024-03-22T10:06:29;10.47;;;9.47;;
4833;SDS011;12895;51.064;7.028;2024-03-22T10:09:17;12.10;;;9.20;;
4833;SDS011;12895;51.064;7.028;2024-03-22T10:12:03;11.27;;;10.07;;
4833;SDS011;12895;51.064;7.028;2024-03-22T10:14:55;11.47;;;10.17;;
4833;SDS011;12895;51.064;7.028;2024-03-22T10:17:42;11.37;;;10.17;;
4833;SDS011;12895;51.064;7.028;2024-03-22T10:20:35;11.80;;;10.23;;
4833;SDS011;12895;51.064;7.028;2024-03-22T10:26:42;13.33;;;10.20;;
4833;SDS011;12895;51.064;7.028;2024-03-22T10:29:39;12.67;;;11.37;;
4833;SDS011;12895;51.064;7.028;2024-03-22T10:32:41;15.07;;;10.53;;
4833;SDS011;12895;51.064;7.028;2024-03-22T10:35:31;13.63;;;11.10;;
4833;SDS011;12895;51.064;7.028;2024-03-22T10:38:21;11.60;;;10.40;;
4833;SDS011;12895;51.064;7.028;2024-03-22T10:41:12;11.13;;;10.03;;
4833;SDS011;12895;51.064;7.028;2024-03-22T10:44:05;13.33;;;10.77;;
4833;SDS011;12895;51.064;7.028;2024-03-22T10:46:58;12.50;;;10.63;;
4833;SDS011;12895;51.064;7.028;2024-03-22T10:50:03;11.37;;;10.27;;
4833;SDS011;12895;51.064;7.028;2024-03-22T10:52:57;12.50;;;11.17;;
4833;SDS011;12895;51.064;7.028;2024-03-22T10:55:55;15.30;;;13.30;;
4833;SDS011;12895;51.064;7.028;2024-03-22T10:58:50;12.83;;;11.53;;
4833;SDS011;12895;51.064;7.028;2024-03-22T11:01:44;13.90;;;12.50;;
4833;SDS011;12895;51.064;7.028;2024-03-22T11:04:55;13.60;;;11.60;;
4833;SDS011;12895;51.064;7.028;2024-03-22T11:07:48;14.33;;;12.83;;
4833;SDS011;12895;51.064;7.028;2024-03-22T11:10:48;14.73;;;12.80;;
4833;SDS011;12895;51.064;7.028;2024-03-22T11:13:41;13.80;;;12.20;;
4833;SDS011;12895;51.064;7.028;2024-03-22T11:16:29;14.00;;;12.73;;
4833;SDS011;12895;51.064;7.028;2024-03-22T11:19:19;15.10;;;13.50;;
4833;SDS011;12895;51.064;7.028;2024-03-22T11:22:06;14.90;;;13.50;;
4833;SDS011;12895;51.064;7.028;2024-03-22T11:24:58;23.13;;;13.70;;
4833;SDS011;12895;51.064;7.028;2024-03-22T11:27:50;17.63;;;13.30;;
4833;SDS011;12895;51.064;7.028;2024-03-22T11:30:53;14.13;;;12.67;;
4833;SDS011;12895;51.064;7.028;2024-03-22T11:33:41;14.67;;;13.17;;
4833;SDS011;12895;51.064;7.028;2024-03-22T11:36:41;14.20;;;12.70;;
4833;SDS011;12895;51.064;7.028;2024-03-22T11:39:31;16.50;;;13.83;;
4833;SDS011;12895;51.064;7.028;2024-03-22T11:42:20;16.90;;;15.27;;
4833;SDS011;12895;51.064;7.028;2024-03-22T11:45:08;15.70;;;14.10;;
4833;SDS011;12895;51.064;7.028;2024-03-22T11:48:02;15.37;;;13.90;;
4833;SDS011;12895;51.064;7.028;2024-03-22T11:50:52;16.77;;;15.07;;
4833;SDS011;12895;51.064;7.028;2024-03-22T11:53:50;16.70;;;14.90;;
4833;SDS011;12895;51.064;7.028;2024-03-22T11:56:39;16.43;;;14.60;;
4833;SDS011;12895;51.064;7.028;2024-03-22T11:59:30;16.50;;;14.90;;
4833;SDS011;12895;51.064;7.028;2024-03-22T12:02:17;17.90;;;16.00;;
4833;SDS011;12895;51.064;7.028;2024-03-22T12:05:04;15.77;;;14.27;;
4833;SDS011;12895;51.064;7.028;2024-03-22T12:08:05;16.17;;;14.47;;
4833;SDS011;12895;51.064;7.028;2024-03-22T12:10:57;16.67;;;15.07;;
4833;SDS011;12895;51.064;7.028;2024-03-22T12:13:55;16.73;;;15.03;;
4833;SDS011;12895;51.064;7.028;2024-03-22T12:16:52;17.67;;;14.83;;
4833;SDS011;12895;51.064;7.028;2024-03-22T12:19:42;16.77;;;13.57;;
4833;SDS011;12895;51.064;7.028;2024-03-22T12:22:44;14.73;;;13.03;;
4833;SDS011;12895;51.064;7.028;2024-03-22T12:25:30;13.40;;;12.10;;
4833;SDS011;12895;51.064;7.028;2024-03-22T12:28:26;13.50;;;12.07;;
4833;SDS011;12895;51.064;7.028;2024-03-22T12:31:16;15.00;;;12.70;;
4833;SDS011;12895;51.064;7.028;2024-03-22T12:34:04;12.90;;;11.60;;
4833;SDS011;12895;51.064;7.028;2024-03-22T12:36:55;14.93;;;12.23;;
4833;SDS011;12895;51.064;7.028;2024-03-22T12:39:42;13.70;;;12.30;;
4833;SDS011;12895;51.064;7.028;2024-03-22T12:42:28;14.80;;;13.10;;
4833;SDS011;12895;51.064;7.028;2024-03-22T12:45:18;13.57;;;12.17;;
4833;SDS011;12895;51.064;7.028;2024-03-22T12:48:06;14.00;;;12.60;;
4833;SDS011;12895;51.064;7.028;2024-03-22T12:51:00;14.23;;;12.30;;
4833;SDS011;12895;51.064;7.028;2024-03-22T12:53:56;13.83;;;12.43;;
4833;SDS011;12895;51.064;7.028;2024-03-22T12:56:45;13.90;;;12.60;;
4833;SDS011;12895;51.064;7.028;2024-03-22T12:59:39;14.00;;;12.70;;
4833;SDS011;12895;51.064;7.028;2024-03-22T13:02:35;16.20;;;14.63;;
4833;SDS011;12895;51.064;7.028;2024-03-22T13:05:22;17.73;;;15.93;;
4833;SDS011;12895;51.064;7.028;2024-03-22T13:08:12;18.60;;;16.73;;
4833;SDS011;12895;51.064;7.028;2024-03-22T13:10:59;17.73;;;15.93;;
4833;SDS011;12895;51.064;7.028;2024-03-22T13:13:46;17.60;;;15.97;;
4833;SDS011;12895;51.064;7.028;2024-03-22T13:16:47;18.27;;;16.37;;
4833;SDS011;12895;51.064;7.028;2024-03-22T13:19:36;16.67;;;15.07;;
4833;SDS011;12895;51.064;7.028;2024-03-22T13:22:26;17.67;;;14.30;;
4833;SDS011;12895;51.064;7.028;2024-03-22T13:25:20;15.03;;;13.53;;
4833;SDS011;12895;51.064;7.028;2024-03-22T13:28:06;14.10;;;12.60;;
4833;SDS011;12895;51.064;7.028;2024-03-22T13:31:10;15.30;;;13.80;;
4833;SDS011;12895;51.064;7.028;2024-03-22T13:33:57;15.70;;;14.20;;
4833;SDS011;12895;51.064;7.028;2024-03-22T13:36:54;15.43;;;13.80;;
4833;SDS011;12895;51.064;7.028;2024-03-22T13:39:47;16.50;;;14.87;;
4833;SDS011;12895;51.064;7.028;2024-03-22T13:42:36;15.63;;;14.23;;
4833;SDS011;12895;51.064;7.028;2024-03-22T13:45:23;17.10;;;15.40;;
4833;SDS011;12895;51.064;7.028;2024-03-22T13:48:10;16.50;;;14.73;;
4833;SDS011;12895;51.064;7.028;2024-03-22T13:50:58;15.37;;;13.90;;
4833;SDS011;12895;51.064;7.028;2024-03-22T13:53:44;15.70;;;14.27;;
4833;SDS011;12895;51.064;7.028;2024-03-22T13:56:31;16.80;;;13.00;;
4833;SDS011;12895;51.064;7.028;2024-03-22T13:59:18;15.43;;;13.87;;
4833;SDS011;12895;51.064;7.028;2024-03-22T14:02:05;16.43;;;14.77;;
4833;SDS011;12895;51.064;7.028;2024-03-22T14:04:53;17.53;;;14.20;;
4833;SDS011;12895;51.064;7.028;2024-03-22T14:07:40;15.13;;;13.63;;
4833;SDS011;12895;51.064;7.028;2024-03-22T14:10:26;16.70;;;15.10;;
4833;SDS011;12895;51.064;7.028;2024-03-22T14:13:16;15.77;;;14.10;;
4833;SDS011;12895;51.064;7.028;2024-03-22T14:16:04;15.27;;;13.77;;
4833;SDS011;12895;51.064;7.028;2024-03-22T14:18:52;17.23;;;15.40;;
4833;SDS011;12895;51.064;7.028;2024-03-22T14:21:38;13.93;;;12.43;;
4833;SDS011;12895;51.064;7.028;2024-03-22T14:24:25;13.50;;;12.10;;
4833;SDS011;12895;51.064;7.028;2024-03-22T14:27:11;13.40;;;12.00;;
4833;SDS011;12895;51.064;7.028;2024-03-22T14:29:59;15.47;;;12.90;;
4833;SDS011;12895;51.064;7.028;2024-03-22T14:32:50;13.77;;;12.37;;
4833;SDS011;12895;51.064;7.028;2024-03-22T14:35:38;15.27;;;13.70;;
4833;SDS011;12895;51.064;7.028;2024-03-22T14:38:24;15.17;;;13.33;;
4833;SDS011;12895;51.064;7.028;2024-03-22T14:41:12;17.80;;;13.70;;
4833;SDS011;12895;51.064;7.028;2024-03-22T14:43:58;14.90;;;13.03;;
4833;SDS011;12895;51.064;7.028;2024-03-22T14:46:45;15.57;;;13.90;;
4833;SDS011;12895;51.064;7.028;2024-03-22T14:49:32;17.67;;;14.43;;
4833;SDS011;12895;51.064;7.028;2024-03-22T14:52:19;15.27;;;13.77;;
4833;SDS011;12895;51.064;7.028;2024-03-22T14:55:07;15.70;;;13.73;;
4833;SDS011;12895;51.064;7.028;2024-03-22T14:57:54;17.03;;;14.93;;
4833;SDS011;12895;51.064;7.028;2024-03-22T15:00:41;15.93;;;14.37;;
4833;SDS011;12895;51.064;7.028;2024-03-22T15:03:28;17.47;;;15.57;;
4833;SDS011;12895;51.064;7.028;2024-03-22T15:06:16;19.37;;;14.83;;
4833;SDS011;12895;51.064;7.028;2024-03-22T15:09:03;16.30;;;14.60;;
4833;SDS011;12895;51.064;7.028;2024-03-22T15:11:55;16.40;;;14.80;;
4833;SDS011;12895;51.064;7.028;2024-03-22T15:14:44;17.03;;;15.33;;
4833;SDS011;12895;51.064;7.028;2024-03-22T15:17:30;17.60;;;14.10;;
4833;SDS011;12895;51.064;7.028;2024-03-22T15:20:17;16.80;;;15.00;;
4833;SDS011;12895;51.064;7.028;2024-03-22T15:23:06;16.10;;;14.50;;
4833;SDS011;12895;51.064;7.028;2024-03-22T15:25:52;16.40;;;14.33;;
4833;SDS011;12895;51.064;7.028;2024-03-22T15:28:42;15.93;;;14.13;;
4833;SDS011;12895;51.064;7.028;2024-03-22T15:31:28;17.40;;;14.80;;
4833;SDS011;12895;51.064;7.028;2024-03-22T15:34:15;18.37;;;14.40;;
4833;SDS011;12895;51.064;7.028;2024-03-22T15:37:01;15.87;;;14.13;;
4833;SDS011;12895;51.064;7.028;2024-03-22T15:39:50;18.57;;;14.60;;
4833;SDS011;12895;51.064;7.028;2024-03-22T15:42:36;17.00;;;14.70;;
4833;SDS011;12895;51.064;7.028;2024-03-22T15:45:30;15.90;;;13.90;;
4833;SDS011;12895;51.064;7.028;2024-03-22T15:48:21;16.27;;;14.50;;
4833;SDS011;12895;51.064;7.028;2024-03-22T15:51:13;15.93;;;13.73;;
4833;SDS011;12895;51.064;7.028;2024-03-22T15:54:04;15.53;;;14.03;;
4833;SDS011;12895;51.064;7.028;2024-03-22T15:56:59;17.80;;;16.00;;
4833;SDS011;12895;51.064;7.028;2024-03-22T15:59:46;17.50;;;14.00;;
4833;SDS011;12895;51.064;7.028;2024-03-22T16:02:38;16.10;;;13.27;;
4833;SDS011;12895;51.064;7.028;2024-03-22T16:05:31;14.97;;;13.43;;
4833;SDS011;12895;51.064;7.028;2024-03-22T16:08:17;15.90;;;14.30;;
4833;SDS011;12895;51.064;7.028;2024-03-22T16:11:08;20.07;;;14.63;;
4833;SDS011;12895;51.064;7.028;2024-03-22T16:13:55;15.77;;;13.80;;
4833;SDS011;12895;51.064;7.028;2024-03-22T16:16:47;15.50;;;13.20;;
4833;SDS011;12895;51.064;7.028;2024-03-22T16:19:34;17.97;;;15.50;;
4833;SDS011;12895;51.064;7.028;2024-03-22T16:22:23;16.97;;;15.30;;
4833;SDS011;12895;51.064;7.028;2024-03-22T16:25:18;18.13;;;16.23;;
4833;SDS011;12895;51.064;7.028;2024-03-22T16:28:05;20.10;;;15.90;;
4833;SDS011;12895;51.064;7.028;2024-03-22T16:30:58;18.50;;;15.57;;
4833;SDS011;12895;51.064;7.028;2024-03-22T16:33:44;19.87;;;17.10;;
4833;SDS011;12895;51.064;7.028;2024-03-22T16:36:31;20.00;;;16.97;;
4833;SDS011;12895;51.064;7.028;2024-03-22T16:39:21;18.37;;;16.43;;
4833;SDS011;12895;51.064;7.028;2024-03-22T16:42:10;18.30;;;16.33;;
4833;SDS011;12895;51.064;7.028;2024-03-22T16:45:00;20.30;;;16.83;;